International Virtual Aviation Organisation

Russian Federation and Kazakhstan MCD

 

Карточка аэропорта UAAA

Внимание!
Информация на этой странице в стадии наполнения.
Если вы не увидели какой-то информации, или заметили неточность - пожалуйста сообщите нам!
Спасибо!
Команда RU-STAFF
Название аэропортаАлматы
Название аэропорта (англ.)Almaty
Превышение2238 ft. (682.1 m.)
Координаты43°21.072', 77°1.5960000000001'
Высота перехода600
Эшелон переходаFL070
Коды ответчика3501-3517, 3401-3427
Зона ОрВДАлматы РПИ (UAAA)
Данные METARUAAA 131100Z 09003MPS 2500 BR BKN020 OVC100 01/M00 Q1016 R88/1///60 NOSIG
Проноз погоды (TAF)UAAA 130500Z 1306/1406 02003MPS 3100 BR SCT020CB BKN100 TX06/1309Z TNM05/1401Z TEMPO 1307/1312 24003G08MPS 1500 BECMG 1313/1314 20003MPS 1200 BKN011CB OVC100 TEMPO 1313/1324 16003MPS 0400 FZFG VV002 TEMPO 1402/1406 26003G10MPS -SHRASN BKN005 OVC010CB
NOTAMshow/hide NOTAM
AWOS   TABLE

Информация о ВПП

ВПП Длина ВПП (м.) Покрытие Курс ВПП Частота ILS
23L4400Асфальтобетон231108.1
05L4500Бетон51109.1
05R4400Асфальтобетон51110.3
23R4500Бетон231111.3

Диспетчерские позиции

Позывной Наименование органа УВД Частота
UAAA_APPАлматы-Подход124.8
UAAA_TWRАлматы-Вышка119.4
UAAA_GNDАлматы-Руление121.7
UAAA_R_APPАлматы-Круг120.8



Спутниковое изображение